sensor_id;sensor_type;location;lat;lon;timestamp;temperature;humidity
38118;DHT22;23928;47.562;7.508;2022-10-15T00:00:33;15.50;99.90
38118;DHT22;23928;47.562;7.508;2022-10-15T00:02:59;15.60;99.90
38118;DHT22;23928;47.562;7.508;2022-10-15T00:05:24;15.60;99.90
38118;DHT22;23928;47.562;7.508;2022-10-15T00:07:51;15.50;99.90
38118;DHT22;23928;47.562;7.508;2022-10-15T00:10:17;15.40;99.90
38118;DHT22;23928;47.562;7.508;2022-10-15T00:12:43;15.50;99.90
38118;DHT22;23928;47.562;7.508;2022-10-15T00:15:09;15.50;99.90
38118;DHT22;23928;47.562;7.508;2022-10-15T00:17:35;15.50;99.90
38118;DHT22;23928;47.562;7.508;2022-10-15T00:20:03;15.40;99.90
38118;DHT22;23928;47.562;7.508;2022-10-15T00:22:29;15.40;99.90
38118;DHT22;23928;47.562;7.508;2022-10-15T00:24:54;15.40;99.90
38118;DHT22;23928;47.562;7.508;2022-10-15T00:27:20;15.50;99.90
38118;DHT22;23928;47.562;7.508;2022-10-15T00:29:45;15.70;99.90
38118;DHT22;23928;47.562;7.508;2022-10-15T00:32:11;15.70;99.90
38118;DHT22;23928;47.562;7.508;2022-10-15T00:34:36;15.70;99.90
38118;DHT22;23928;47.562;7.508;2022-10-15T00:37:02;15.60;99.90
38118;DHT22;23928;47.562;7.508;2022-10-15T00:39:27;15.60;99.90
38118;DHT22;23928;47.562;7.508;2022-10-15T00:41:53;15.60;99.90
38118;DHT22;23928;47.562;7.508;2022-10-15T00:47:10;15.70;99.90
38118;DHT22;23928;47.562;7.508;2022-10-15T00:49:50;15.70;99.90
38118;DHT22;23928;47.562;7.508;2022-10-15T00:52:22;15.80;99.90
38118;DHT22;23928;47.562;7.508;2022-10-15T00:54:54;15.70;99.90
38118;DHT22;23928;47.562;7.508;2022-10-15T00:57:23;15.70;99.90
38118;DHT22;23928;47.562;7.508;2022-10-15T00:59:52;15.70;99.90
38118;DHT22;23928;47.562;7.508;2022-10-15T01:02:19;15.70;99.90
38118;DHT22;23928;47.562;7.508;2022-10-15T01:04:45;15.60;99.90
38118;DHT22;23928;47.562;7.508;2022-10-15T01:07:12;15.50;99.90
38118;DHT22;23928;47.562;7.508;2022-10-15T01:09:39;15.60;99.90
38118;DHT22;23928;47.562;7.508;2022-10-15T01:12:15;15.60;99.90
38118;DHT22;23928;47.562;7.508;2022-10-15T01:17:41;15.60;99.90
38118;DHT22;23928;47.562;7.508;2022-10-15T01:20:46;15.60;99.90
38118;DHT22;23928;47.562;7.508;2022-10-15T01:32:00;15.40;99.90
38118;DHT22;23928;47.562;7.508;2022-10-15T01:37:43;15.50;99.90
38118;DHT22;23928;47.562;7.508;2022-10-15T01:39:50;15.50;99.90
38118;DHT22;23928;47.562;7.508;2022-10-15T01:42:28;15.40;99.90
38118;DHT22;23928;47.562;7.508;2022-10-15T01:45:11;15.40;99.90
38118;DHT22;23928;47.562;7.508;2022-10-15T01:50:14;15.40;99.90
38118;DHT22;23928;47.562;7.508;2022-10-15T01:52:41;15.50;99.90
38118;DHT22;23928;47.562;7.508;2022-10-15T01:55:11;15.50;99.90
38118;DHT22;23928;47.562;7.508;2022-10-15T01:57:41;15.40;99.90
38118;DHT22;23928;47.562;7.508;2022-10-15T02:00:07;15.50;99.90
38118;DHT22;23928;47.562;7.508;2022-10-15T02:02:33;15.50;99.90
38118;DHT22;23928;47.562;7.508;2022-10-15T02:04:59;15.40;99.90
38118;DHT22;23928;47.562;7.508;2022-10-15T02:07:58;15.40;99.90
38118;DHT22;23928;47.562;7.508;2022-10-15T02:10:45;15.50;99.90
38118;DHT22;23928;47.562;7.508;2022-10-15T02:16:26;15.60;99.90
38118;DHT22;23928;47.562;7.508;2022-10-15T02:19:14;15.60;99.90
38118;DHT22;23928;47.562;7.508;2022-10-15T02:21:49;15.60;99.90
38118;DHT22;23928;47.562;7.508;2022-10-15T02:24:20;15.70;99.90
38118;DHT22;23928;47.562;7.508;2022-10-15T02:26:47;15.60;99.90
38118;DHT22;23928;47.562;7.508;2022-10-15T02:29:17;15.70;99.90
38118;DHT22;23928;47.562;7.508;2022-10-15T02:31:46;15.70;99.90
38118;DHT22;23928;47.562;7.508;2022-10-15T02:34:16;15.70;99.90
38118;DHT22;23928;47.562;7.508;2022-10-15T02:36:42;15.90;99.90
38118;DHT22;23928;47.562;7.508;2022-10-15T02:39:11;15.80;99.90
38118;DHT22;23928;47.562;7.508;2022-10-15T02:41:38;15.80;99.90
38118;DHT22;23928;47.562;7.508;2022-10-15T02:44:04;15.80;99.90
38118;DHT22;23928;47.562;7.508;2022-10-15T02:46:30;15.90;99.90
38118;DHT22;23928;47.562;7.508;2022-10-15T02:48:56;15.80;99.90
38118;DHT22;23928;47.562;7.508;2022-10-15T02:51:21;15.80;99.90
38118;DHT22;23928;47.562;7.508;2022-10-15T02:53:47;15.80;99.90
38118;DHT22;23928;47.562;7.508;2022-10-15T02:56:13;15.80;99.90
38118;DHT22;23928;47.562;7.508;2022-10-15T02:58:38;15.90;99.90
38118;DHT22;23928;47.562;7.508;2022-10-15T03:01:04;15.70;99.90
38118;DHT22;23928;47.562;7.508;2022-10-15T03:03:30;15.60;99.90
38118;DHT22;23928;47.562;7.508;2022-10-15T03:05:55;15.50;99.90
38118;DHT22;23928;47.562;7.508;2022-10-15T03:08:21;15.70;99.90
38118;DHT22;23928;47.562;7.508;2022-10-15T03:10:46;15.70;99.90
38118;DHT22;23928;47.562;7.508;2022-10-15T03:13:12;15.70;99.90
38118;DHT22;23928;47.562;7.508;2022-10-15T03:15:38;15.80;99.90
38118;DHT22;23928;47.562;7.508;2022-10-15T03:18:04;15.80;99.90
38118;DHT22;23928;47.562;7.508;2022-10-15T03:20:30;15.70;99.90
38118;DHT22;23928;47.562;7.508;2022-10-15T03:22:55;15.60;99.90
38118;DHT22;23928;47.562;7.508;2022-10-15T03:25:21;15.70;99.90
38118;DHT22;23928;47.562;7.508;2022-10-15T03:27:47;15.60;99.90
38118;DHT22;23928;47.562;7.508;2022-10-15T03:30:13;15.40;99.90
38118;DHT22;23928;47.562;7.508;2022-10-15T03:32:38;15.50;99.90
38118;DHT22;23928;47.562;7.508;2022-10-15T03:35:04;15.60;99.90
38118;DHT22;23928;47.562;7.508;2022-10-15T03:37:30;15.60;99.90
38118;DHT22;23928;47.562;7.508;2022-10-15T03:39:55;15.60;99.90
38118;DHT22;23928;47.562;7.508;2022-10-15T03:42:21;15.50;99.90
38118;DHT22;23928;47.562;7.508;2022-10-15T03:44:47;15.50;99.90
38118;DHT22;23928;47.562;7.508;2022-10-15T03:47:12;15.50;99.90
38118;DHT22;23928;47.562;7.508;2022-10-15T03:49:38;15.50;99.90
38118;DHT22;23928;47.562;7.508;2022-10-15T03:52:03;15.40;99.90
38118;DHT22;23928;47.562;7.508;2022-10-15T03:54:29;15.60;99.90
38118;DHT22;23928;47.562;7.508;2022-10-15T03:56:55;15.50;99.90
38118;DHT22;23928;47.562;7.508;2022-10-15T03:59:20;15.40;99.90
38118;DHT22;23928;47.562;7.508;2022-10-15T04:01:46;15.50;99.90
38118;DHT22;23928;47.562;7.508;2022-10-15T04:04:12;15.40;99.90
38118;DHT22;23928;47.562;7.508;2022-10-15T04:06:38;15.40;99.90
38118;DHT22;23928;47.562;7.508;2022-10-15T04:09:04;15.40;99.90
38118;DHT22;23928;47.562;7.508;2022-10-15T04:11:30;15.50;99.90
38118;DHT22;23928;47.562;7.508;2022-10-15T04:13:55;15.50;99.90
38118;DHT22;23928;47.562;7.508;2022-10-15T04:16:21;15.50;99.90
38118;DHT22;23928;47.562;7.508;2022-10-15T04:18:46;15.40;99.90
38118;DHT22;23928;47.562;7.508;2022-10-15T04:21:12;15.40;99.90
38118;DHT22;23928;47.562;7.508;2022-10-15T04:23:38;15.40;99.90
38118;DHT22;23928;47.562;7.508;2022-10-15T04:26:04;15.40;99.90
38118;DHT22;23928;47.562;7.508;2022-10-15T04:28:30;15.40;99.90
38118;DHT22;23928;47.562;7.508;2022-10-15T04:31:00;15.40;99.90
38118;DHT22;23928;47.562;7.508;2022-10-15T04:33:26;15.40;99.90
38118;DHT22;23928;47.562;7.508;2022-10-15T04:36:04;15.50;99.90
38118;DHT22;23928;47.562;7.508;2022-10-15T04:38:30;15.40;99.90
38118;DHT22;23928;47.562;7.508;2022-10-15T04:41:04;15.40;99.90
38118;DHT22;23928;47.562;7.508;2022-10-15T04:43:32;15.30;99.90
38118;DHT22;23928;47.562;7.508;2022-10-15T04:45:59;15.30;99.90
38118;DHT22;23928;47.562;7.508;2022-10-15T04:48:27;15.30;99.90
38118;DHT22;23928;47.562;7.508;2022-10-15T04:50:53;15.30;99.90
38118;DHT22;23928;47.562;7.508;2022-10-15T04:53:19;15.30;99.90
38118;DHT22;23928;47.562;7.508;2022-10-15T04:55:45;15.30;99.90
38118;DHT22;23928;47.562;7.508;2022-10-15T04:58:11;15.30;99.90
38118;DHT22;23928;47.562;7.508;2022-10-15T05:00:37;15.30;99.90
38118;DHT22;23928;47.562;7.508;2022-10-15T05:03:06;15.30;99.90
38118;DHT22;23928;47.562;7.508;2022-10-15T05:05:32;15.30;99.90
38118;DHT22;23928;47.562;7.508;2022-10-15T05:08:04;15.20;99.90
38118;DHT22;23928;47.562;7.508;2022-10-15T05:10:30;15.20;99.90
38118;DHT22;23928;47.562;7.508;2022-10-15T05:12:56;15.20;99.90
38118;DHT22;23928;47.562;7.508;2022-10-15T05:15:21;15.10;99.90
38118;DHT22;23928;47.562;7.508;2022-10-15T05:17:47;15.10;99.90
38118;DHT22;23928;47.562;7.508;2022-10-15T05:20:12;15.10;99.90
38118;DHT22;23928;47.562;7.508;2022-10-15T05:22:38;15.10;99.90
38118;DHT22;23928;47.562;7.508;2022-10-15T05:25:04;15.10;99.90
38118;DHT22;23928;47.562;7.508;2022-10-15T05:27:30;15.10;99.90
38118;DHT22;23928;47.562;7.508;2022-10-15T05:29:55;15.10;99.90
38118;DHT22;23928;47.562;7.508;2022-10-15T05:32:21;15.20;99.90
38118;DHT22;23928;47.562;7.508;2022-10-15T05:34:46;15.20;99.90
38118;DHT22;23928;47.562;7.508;2022-10-15T05:37:12;15.10;99.90
38118;DHT22;23928;47.562;7.508;2022-10-15T05:39:37;15.20;99.90
38118;DHT22;23928;47.562;7.508;2022-10-15T05:42:03;15.30;99.90
38118;DHT22;23928;47.562;7.508;2022-10-15T05:44:28;15.20;99.90
38118;DHT22;23928;47.562;7.508;2022-10-15T05:46:54;15.20;99.90
38118;DHT22;23928;47.562;7.508;2022-10-15T05:49:20;15.10;99.90
38118;DHT22;23928;47.562;7.508;2022-10-15T05:51:45;15.20;99.90
38118;DHT22;23928;47.562;7.508;2022-10-15T05:54:11;15.30;99.90
38118;DHT22;23928;47.562;7.508;2022-10-15T05:56:36;15.30;99.90
38118;DHT22;23928;47.562;7.508;2022-10-15T05:59:02;15.30;99.90
38118;DHT22;23928;47.562;7.508;2022-10-15T06:01:29;15.30;99.90
38118;DHT22;23928;47.562;7.508;2022-10-15T06:03:54;15.40;99.90
38118;DHT22;23928;47.562;7.508;2022-10-15T06:06:24;15.30;99.90
38118;DHT22;23928;47.562;7.508;2022-10-15T06:08:51;15.30;99.90
38118;DHT22;23928;47.562;7.508;2022-10-15T06:11:18;15.20;99.90
38118;DHT22;23928;47.562;7.508;2022-10-15T06:13:44;15.10;99.90
38118;DHT22;23928;47.562;7.508;2022-10-15T06:18:45;15.10;99.90
38118;DHT22;23928;47.562;7.508;2022-10-15T06:21:11;15.10;99.90
38118;DHT22;23928;47.562;7.508;2022-10-15T06:23:37;15.10;99.90
38118;DHT22;23928;47.562;7.508;2022-10-15T06:26:04;15.10;99.90
38118;DHT22;23928;47.562;7.508;2022-10-15T06:28:30;15.20;99.90
38118;DHT22;23928;47.562;7.508;2022-10-15T06:33:26;15.30;99.90
38118;DHT22;23928;47.562;7.508;2022-10-15T06:35:52;15.30;99.90
38118;DHT22;23928;47.562;7.508;2022-10-15T06:56:15;15.80;99.90
38118;DHT22;23928;47.562;7.508;2022-10-15T06:58:41;15.90;99.90
38118;DHT22;23928;47.562;7.508;2022-10-15T07:01:07;15.90;99.90
38118;DHT22;23928;47.562;7.508;2022-10-15T07:27:14;16.80;99.90
38118;DHT22;23928;47.562;7.508;2022-10-15T07:32:15;16.80;99.90
38118;DHT22;23928;47.562;7.508;2022-10-15T07:34:41;16.90;99.90
38118;DHT22;23928;47.562;7.508;2022-10-15T07:37:06;17.00;99.90
38118;DHT22;23928;47.562;7.508;2022-10-15T07:39:32;17.10;99.90
38118;DHT22;23928;47.562;7.508;2022-10-15T07:41:57;17.10;99.90
38118;DHT22;23928;47.562;7.508;2022-10-15T07:44:23;17.00;99.90
38118;DHT22;23928;47.562;7.508;2022-10-15T07:46:48;17.00;99.90
38118;DHT22;23928;47.562;7.508;2022-10-15T07:49:14;17.00;99.90
38118;DHT22;23928;47.562;7.508;2022-10-15T07:51:41;17.00;99.90
38118;DHT22;23928;47.562;7.508;2022-10-15T07:54:06;17.00;99.90
38118;DHT22;23928;47.562;7.508;2022-10-15T07:56:32;17.00;99.90
38118;DHT22;23928;47.562;7.508;2022-10-15T07:58:58;17.00;99.90
38118;DHT22;23928;47.562;7.508;2022-10-15T08:01:23;17.00;99.90
38118;DHT22;23928;47.562;7.508;2022-10-15T08:03:49;17.00;99.90
38118;DHT22;23928;47.562;7.508;2022-10-15T08:06:15;17.10;99.90
38118;DHT22;23928;47.562;7.508;2022-10-15T08:08:41;17.20;99.90
38118;DHT22;23928;47.562;7.508;2022-10-15T08:11:14;17.20;99.90
38118;DHT22;23928;47.562;7.508;2022-10-15T08:13:41;17.20;99.90
38118;DHT22;23928;47.562;7.508;2022-10-15T08:16:11;17.30;99.90
38118;DHT22;23928;47.562;7.508;2022-10-15T08:18:37;17.30;99.90
38118;DHT22;23928;47.562;7.508;2022-10-15T08:21:04;17.40;99.90
38118;DHT22;23928;47.562;7.508;2022-10-15T08:23:31;17.50;99.90
38118;DHT22;23928;47.562;7.508;2022-10-15T08:25:58;17.50;99.90
38118;DHT22;23928;47.562;7.508;2022-10-15T08:28:28;17.60;99.90
38118;DHT22;23928;47.562;7.508;2022-10-15T08:30:56;17.70;99.90
38118;DHT22;23928;47.562;7.508;2022-10-15T08:33:23;17.60;99.90
38118;DHT22;23928;47.562;7.508;2022-10-15T08:35:48;17.50;99.90
38118;DHT22;23928;47.562;7.508;2022-10-15T08:38:14;17.50;99.90
38118;DHT22;23928;47.562;7.508;2022-10-15T08:40:39;17.50;99.90
38118;DHT22;23928;47.562;7.508;2022-10-15T08:43:43;17.50;99.90
38118;DHT22;23928;47.562;7.508;2022-10-15T08:46:11;17.70;99.90
38118;DHT22;23928;47.562;7.508;2022-10-15T08:48:52;18.00;99.90
38118;DHT22;23928;47.562;7.508;2022-10-15T08:51:24;18.20;99.90
38118;DHT22;23928;47.562;7.508;2022-10-15T08:54:00;18.50;99.90
38118;DHT22;23928;47.562;7.508;2022-10-15T08:56:30;18.60;99.90
38118;DHT22;23928;47.562;7.508;2022-10-15T08:59:07;18.80;99.90
38118;DHT22;23928;47.562;7.508;2022-10-15T09:07:38;18.60;99.90
38118;DHT22;23928;47.562;7.508;2022-10-15T09:10:38;18.40;99.90
38118;DHT22;23928;47.562;7.508;2022-10-15T09:13:42;18.30;99.90
38118;DHT22;23928;47.562;7.508;2022-10-15T09:18:37;18.10;99.90
38118;DHT22;23928;47.562;7.508;2022-10-15T09:21:04;18.10;99.90
38118;DHT22;23928;47.562;7.508;2022-10-15T09:23:32;18.30;99.90
38118;DHT22;23928;47.562;7.508;2022-10-15T09:26:24;18.40;99.90
38118;DHT22;23928;47.562;7.508;2022-10-15T09:28:58;18.40;99.90
38118;DHT22;23928;47.562;7.508;2022-10-15T09:31:50;18.20;99.90
38118;DHT22;23928;47.562;7.508;2022-10-15T09:34:26;18.00;99.90
38118;DHT22;23928;47.562;7.508;2022-10-15T09:36:57;18.20;99.90
38118;DHT22;23928;47.562;7.508;2022-10-15T09:42:27;18.20;99.90
38118;DHT22;23928;47.562;7.508;2022-10-15T09:44:58;18.30;99.90
38118;DHT22;23928;47.562;7.508;2022-10-15T09:47:32;18.40;99.90
38118;DHT22;23928;47.562;7.508;2022-10-15T09:49:58;18.50;99.90
38118;DHT22;23928;47.562;7.508;2022-10-15T09:57:37;19.00;99.90
38118;DHT22;23928;47.562;7.508;2022-10-15T10:00:07;19.10;99.90
38118;DHT22;23928;47.562;7.508;2022-10-15T10:02:34;19.10;99.90
38118;DHT22;23928;47.562;7.508;2022-10-15T10:05:27;19.10;99.90
38118;DHT22;23928;47.562;7.508;2022-10-15T10:08:26;19.10;99.90
38118;DHT22;23928;47.562;7.508;2022-10-15T10:10:59;19.10;99.90
38118;DHT22;23928;47.562;7.508;2022-10-15T10:13:28;19.10;99.90
38118;DHT22;23928;47.562;7.508;2022-10-15T10:16:02;19.20;99.90
38118;DHT22;23928;47.562;7.508;2022-10-15T10:18:30;19.10;99.90
38118;DHT22;23928;47.562;7.508;2022-10-15T10:21:05;19.10;99.90
38118;DHT22;23928;47.562;7.508;2022-10-15T10:23:36;19.00;99.90
38118;DHT22;23928;47.562;7.508;2022-10-15T10:26:04;18.90;99.90
38118;DHT22;23928;47.562;7.508;2022-10-15T10:28:36;18.80;99.90
38118;DHT22;23928;47.562;7.508;2022-10-15T10:31:07;18.90;99.90
38118;DHT22;23928;47.562;7.508;2022-10-15T10:39:04;19.10;99.90
38118;DHT22;23928;47.562;7.508;2022-10-15T10:41:51;19.00;99.90
38118;DHT22;23928;47.562;7.508;2022-10-15T10:44:41;19.10;99.90
38118;DHT22;23928;47.562;7.508;2022-10-15T10:49:42;19.10;99.90
38118;DHT22;23928;47.562;7.508;2022-10-15T10:54:46;19.30;99.90
38118;DHT22;23928;47.562;7.508;2022-10-15T10:57:16;19.40;99.90
38118;DHT22;23928;47.562;7.508;2022-10-15T10:59:48;19.50;99.90
38118;DHT22;23928;47.562;7.508;2022-10-15T11:02:14;19.60;99.90
38118;DHT22;23928;47.562;7.508;2022-10-15T11:04:40;19.70;99.90
38118;DHT22;23928;47.562;7.508;2022-10-15T11:10:20;19.80;99.90
38118;DHT22;23928;47.562;7.508;2022-10-15T11:13:05;19.90;99.90
38118;DHT22;23928;47.562;7.508;2022-10-15T11:15:50;19.90;99.90
38118;DHT22;23928;47.562;7.508;2022-10-15T11:18:34;19.90;99.90
38118;DHT22;23928;47.562;7.508;2022-10-15T11:26:51;20.10;99.90
38118;DHT22;23928;47.562;7.508;2022-10-15T11:29:21;20.10;99.90
38118;DHT22;23928;47.562;7.508;2022-10-15T11:46:02;20.90;99.90
38118;DHT22;23928;47.562;7.508;2022-10-15T11:53:51;21.30;99.90
38118;DHT22;23928;47.562;7.508;2022-10-15T11:56:25;21.60;99.90
38118;DHT22;23928;47.562;7.508;2022-10-15T11:58:57;21.70;99.90
38118;DHT22;23928;47.562;7.508;2022-10-15T12:04:01;21.70;99.90
38118;DHT22;23928;47.562;7.508;2022-10-15T12:06:34;22.00;99.90
38118;DHT22;23928;47.562;7.508;2022-10-15T12:09:02;22.10;99.90
38118;DHT22;23928;47.562;7.508;2022-10-15T12:11:50;21.70;99.90
38118;DHT22;23928;47.562;7.508;2022-10-15T12:14:22;21.40;99.90
38118;DHT22;23928;47.562;7.508;2022-10-15T12:19:55;21.80;99.90
38118;DHT22;23928;47.562;7.508;2022-10-15T12:22:32;21.40;99.90
38118;DHT22;23928;47.562;7.508;2022-10-15T12:24:58;21.00;99.90
38118;DHT22;23928;47.562;7.508;2022-10-15T12:27:25;20.60;99.90
38118;DHT22;23928;47.562;7.508;2022-10-15T12:30:12;20.50;99.90
38118;DHT22;23928;47.562;7.508;2022-10-15T12:32:45;20.70;99.90
38118;DHT22;23928;47.562;7.508;2022-10-15T12:35:28;20.70;99.90
38118;DHT22;23928;47.562;7.508;2022-10-15T12:37:54;20.60;99.90
38118;DHT22;23928;47.562;7.508;2022-10-15T12:40:32;20.60;99.90
38118;DHT22;23928;47.562;7.508;2022-10-15T12:43:03;20.40;99.90
38118;DHT22;23928;47.562;7.508;2022-10-15T12:45:40;20.30;99.90
38118;DHT22;23928;47.562;7.508;2022-10-15T12:50:41;20.30;99.90
38118;DHT22;23928;47.562;7.508;2022-10-15T12:58:38;20.00;99.90
38118;DHT22;23928;47.562;7.508;2022-10-15T13:01:14;19.80;99.90
38118;DHT22;23928;47.562;7.508;2022-10-15T13:03:51;19.70;99.90
38118;DHT22;23928;47.562;7.508;2022-10-15T13:08:56;19.40;99.90
38118;DHT22;23928;47.562;7.508;2022-10-15T13:11:47;19.40;99.90
38118;DHT22;23928;47.562;7.508;2022-10-15T13:16:48;19.10;99.90
38118;DHT22;23928;47.562;7.508;2022-10-15T13:19:19;19.00;99.90
38118;DHT22;23928;47.562;7.508;2022-10-15T13:21:50;18.90;99.90
38118;DHT22;23928;47.562;7.508;2022-10-15T13:24:18;19.00;99.90
38118;DHT22;23928;47.562;7.508;2022-10-15T13:26:44;19.00;99.90
38118;DHT22;23928;47.562;7.508;2022-10-15T13:29:23;18.90;99.90
38118;DHT22;23928;47.562;7.508;2022-10-15T13:31:50;18.80;99.90
38118;DHT22;23928;47.562;7.508;2022-10-15T13:34:31;19.00;99.90
38118;DHT22;23928;47.562;7.508;2022-10-15T13:37:00;19.00;99.90
38118;DHT22;23928;47.562;7.508;2022-10-15T13:39:39;19.00;99.90
38118;DHT22;23928;47.562;7.508;2022-10-15T13:42:22;18.80;99.90
38118;DHT22;23928;47.562;7.508;2022-10-15T13:45:00;18.50;99.90
38118;DHT22;23928;47.562;7.508;2022-10-15T13:47:36;18.50;99.90
38118;DHT22;23928;47.562;7.508;2022-10-15T13:52:43;18.50;99.90
38118;DHT22;23928;47.562;7.508;2022-10-15T13:55:30;18.50;99.90
38118;DHT22;23928;47.562;7.508;2022-10-15T14:00:48;18.80;99.90
38118;DHT22;23928;47.562;7.508;2022-10-15T14:03:20;18.90;99.90
38118;DHT22;23928;47.562;7.508;2022-10-15T14:05:48;19.00;99.90
38118;DHT22;23928;47.562;7.508;2022-10-15T14:08:19;18.90;99.90
38118;DHT22;23928;47.562;7.508;2022-10-15T14:10:46;19.00;99.90
38118;DHT22;23928;47.562;7.508;2022-10-15T14:13:12;19.10;99.90
38118;DHT22;23928;47.562;7.508;2022-10-15T14:15:51;19.00;99.90
38118;DHT22;23928;47.562;7.508;2022-10-15T14:18:35;19.10;99.90
38118;DHT22;23928;47.562;7.508;2022-10-15T14:21:02;19.20;99.90
38118;DHT22;23928;47.562;7.508;2022-10-15T14:23:28;19.20;99.90
38118;DHT22;23928;47.562;7.508;2022-10-15T14:26:01;19.30;99.90
38118;DHT22;23928;47.562;7.508;2022-10-15T14:28:30;19.20;99.90
38118;DHT22;23928;47.562;7.508;2022-10-15T14:30:57;19.10;99.90
38118;DHT22;23928;47.562;7.508;2022-10-15T14:36:11;19.20;99.90
38118;DHT22;23928;47.562;7.508;2022-10-15T14:38:37;19.30;99.90
38118;DHT22;23928;47.562;7.508;2022-10-15T14:41:17;19.20;99.90
38118;DHT22;23928;47.562;7.508;2022-10-15T14:43:44;19.00;99.90
38118;DHT22;23928;47.562;7.508;2022-10-15T14:46:17;19.20;99.90
38118;DHT22;23928;47.562;7.508;2022-10-15T14:48:43;19.10;99.90
38118;DHT22;23928;47.562;7.508;2022-10-15T14:51:27;19.20;99.90
38118;DHT22;23928;47.562;7.508;2022-10-15T14:53:53;19.40;99.90
38118;DHT22;23928;47.562;7.508;2022-10-15T14:56:22;19.40;99.90
38118;DHT22;23928;47.562;7.508;2022-10-15T14:58:51;19.40;99.90
38118;DHT22;23928;47.562;7.508;2022-10-15T15:01:19;19.40;99.90
38118;DHT22;23928;47.562;7.508;2022-10-15T15:03:51;19.40;99.90
38118;DHT22;23928;47.562;7.508;2022-10-15T15:06:17;19.40;99.90
38118;DHT22;23928;47.562;7.508;2022-10-15T15:08:42;19.20;99.90
38118;DHT22;23928;47.562;7.508;2022-10-15T15:11:23;19.30;99.90
38118;DHT22;23928;47.562;7.508;2022-10-15T15:13:49;19.40;99.90
38118;DHT22;23928;47.562;7.508;2022-10-15T15:16:17;19.30;99.90
38118;DHT22;23928;47.562;7.508;2022-10-15T15:18:43;19.30;99.90
38118;DHT22;23928;47.562;7.508;2022-10-15T15:21:16;19.30;99.90
38118;DHT22;23928;47.562;7.508;2022-10-15T15:23:44;19.20;99.90
38118;DHT22;23928;47.562;7.508;2022-10-15T15:26:09;19.20;99.90
38118;DHT22;23928;47.562;7.508;2022-10-15T15:28:35;19.20;99.90
38118;DHT22;23928;47.562;7.508;2022-10-15T15:31:04;19.00;99.90
38118;DHT22;23928;47.562;7.508;2022-10-15T15:33:31;19.00;99.90
38118;DHT22;23928;47.562;7.508;2022-10-15T15:36:11;19.10;99.90
38118;DHT22;23928;47.562;7.508;2022-10-15T15:38:37;18.90;99.90
38118;DHT22;23928;47.562;7.508;2022-10-15T15:41:15;19.00;99.90
38118;DHT22;23928;47.562;7.508;2022-10-15T15:43:41;18.80;99.90
38118;DHT22;23928;47.562;7.508;2022-10-15T15:46:07;18.70;99.90
38118;DHT22;23928;47.562;7.508;2022-10-15T15:48:33;18.80;99.90
38118;DHT22;23928;47.562;7.508;2022-10-15T15:51:05;18.70;99.90
38118;DHT22;23928;47.562;7.508;2022-10-15T15:53:31;18.70;99.90
38118;DHT22;23928;47.562;7.508;2022-10-15T15:55:57;18.60;99.90
38118;DHT22;23928;47.562;7.508;2022-10-15T15:58:23;18.60;99.90
38118;DHT22;23928;47.562;7.508;2022-10-15T16:00:49;18.50;99.90
38118;DHT22;23928;47.562;7.508;2022-10-15T16:03:14;18.40;99.90
38118;DHT22;23928;47.562;7.508;2022-10-15T16:05:40;18.40;99.90
38118;DHT22;23928;47.562;7.508;2022-10-15T16:08:07;18.40;99.90
38118;DHT22;23928;47.562;7.508;2022-10-15T16:10:33;18.20;99.90
38118;DHT22;23928;47.562;7.508;2022-10-15T16:13:00;18.20;99.90
38118;DHT22;23928;47.562;7.508;2022-10-15T16:15:25;18.00;99.90
38118;DHT22;23928;47.562;7.508;2022-10-15T16:17:51;18.00;99.90
38118;DHT22;23928;47.562;7.508;2022-10-15T16:20:17;17.90;99.90
38118;DHT22;23928;47.562;7.508;2022-10-15T16:22:42;17.80;99.90
38118;DHT22;23928;47.562;7.508;2022-10-15T16:25:09;17.60;99.90
38118;DHT22;23928;47.562;7.508;2022-10-15T16:27:34;17.60;99.90
38118;DHT22;23928;47.562;7.508;2022-10-15T16:30:01;17.60;99.90
38118;DHT22;23928;47.562;7.508;2022-10-15T16:32:26;17.60;99.90
38118;DHT22;23928;47.562;7.508;2022-10-15T16:34:52;17.60;99.90
38118;DHT22;23928;47.562;7.508;2022-10-15T16:37:17;17.50;99.90
38118;DHT22;23928;47.562;7.508;2022-10-15T16:39:43;17.50;99.90
38118;DHT22;23928;47.562;7.508;2022-10-15T16:42:09;17.40;99.90
38118;DHT22;23928;47.562;7.508;2022-10-15T16:44:34;17.30;99.90
38118;DHT22;23928;47.562;7.508;2022-10-15T16:47:00;17.30;99.90
38118;DHT22;23928;47.562;7.508;2022-10-15T16:49:26;17.20;99.90
38118;DHT22;23928;47.562;7.508;2022-10-15T16:51:51;17.10;99.90
38118;DHT22;23928;47.562;7.508;2022-10-15T16:54:17;17.00;99.90
38118;DHT22;23928;47.562;7.508;2022-10-15T16:56:43;17.00;99.90
38118;DHT22;23928;47.562;7.508;2022-10-15T16:59:09;16.90;99.90
38118;DHT22;23928;47.562;7.508;2022-10-15T17:01:35;16.90;99.90
38118;DHT22;23928;47.562;7.508;2022-10-15T17:04:01;17.00;99.90
38118;DHT22;23928;47.562;7.508;2022-10-15T17:06:28;16.90;99.90
38118;DHT22;23928;47.562;7.508;2022-10-15T17:08:59;16.80;99.90
38118;DHT22;23928;47.562;7.508;2022-10-15T17:11:46;16.70;99.90
38118;DHT22;23928;47.562;7.508;2022-10-15T17:14:14;16.60;99.90
38118;DHT22;23928;47.562;7.508;2022-10-15T17:16:49;16.50;99.90
38118;DHT22;23928;47.562;7.508;2022-10-15T17:19:20;16.30;99.90
38118;DHT22;23928;47.562;7.508;2022-10-15T17:21:48;16.40;99.90
38118;DHT22;23928;47.562;7.508;2022-10-15T17:24:15;16.50;99.90
38118;DHT22;23928;47.562;7.508;2022-10-15T17:26:42;16.40;99.90
38118;DHT22;23928;47.562;7.508;2022-10-15T17:29:11;16.30;99.90
38118;DHT22;23928;47.562;7.508;2022-10-15T17:31:38;16.20;99.90
38118;DHT22;23928;47.562;7.508;2022-10-15T17:34:06;16.20;99.90
38118;DHT22;23928;47.562;7.508;2022-10-15T17:36:37;16.20;99.90
38118;DHT22;23928;47.562;7.508;2022-10-15T17:39:06;16.10;99.90
38118;DHT22;23928;47.562;7.508;2022-10-15T17:41:32;16.10;99.90
38118;DHT22;23928;47.562;7.508;2022-10-15T17:43:58;16.00;99.90
38118;DHT22;23928;47.562;7.508;2022-10-15T17:46:25;16.00;99.90
38118;DHT22;23928;47.562;7.508;2022-10-15T17:48:52;16.00;99.90
38118;DHT22;23928;47.562;7.508;2022-10-15T17:51:20;16.00;99.90
38118;DHT22;23928;47.562;7.508;2022-10-15T17:53:47;15.90;99.90
38118;DHT22;23928;47.562;7.508;2022-10-15T17:56:18;15.90;99.90
38118;DHT22;23928;47.562;7.508;2022-10-15T17:58:44;15.80;99.90
38118;DHT22;23928;47.562;7.508;2022-10-15T18:01:15;15.70;99.90
38118;DHT22;23928;47.562;7.508;2022-10-15T18:03:41;15.70;99.90
38118;DHT22;23928;47.562;7.508;2022-10-15T18:06:09;15.60;99.90
38118;DHT22;23928;47.562;7.508;2022-10-15T18:08:34;15.50;99.90
38118;DHT22;23928;47.562;7.508;2022-10-15T18:11:00;15.40;99.90
38118;DHT22;23928;47.562;7.508;2022-10-15T18:13:26;15.60;99.90
38118;DHT22;23928;47.562;7.508;2022-10-15T18:15:54;15.80;99.90
38118;DHT22;23928;47.562;7.508;2022-10-15T18:18:20;15.70;99.90